createdAt,value
2019-02-14T05:58:42.678Z,3
2019-02-14T06:04:43.021Z,7
2019-02-14T06:07:43.249Z,10
2019-02-14T06:09:43.339Z,13
2019-02-14T06:11:13.501Z,17
2019-02-14T06:12:13.527Z,20
2019-02-14T06:13:13.580Z,23
2019-02-14T06:14:13.653Z,27
2019-02-14T06:15:13.679Z,30
2019-02-14T06:15:43.721Z,33
2019-02-14T06:16:13.747Z,37
2019-02-14T06:16:43.793Z,40
2019-02-14T06:17:13.779Z,43
2019-02-14T06:17:43.806Z,47
2019-02-14T06:18:13.851Z,50
2019-02-14T06:18:43.875Z,53
2019-02-14T06:19:13.953Z,60
2019-02-14T06:19:43.971Z,63
2019-02-14T06:20:13.981Z,70
2019-02-14T06:20:44.027Z,73
2019-02-14T06:21:14.041Z,80
2019-02-14T06:21:44.067Z,87
2019-02-14T06:22:14.118Z,97
2019-02-14T06:22:44.160Z,103
2019-02-14T06:23:14.233Z,113
2019-02-14T06:23:44.218Z,123
2019-02-14T06:24:14.257Z,130
2019-02-14T06:24:44.285Z,137
2019-02-14T06:25:14.294Z,147
2019-02-14T06:25:44.299Z,153
2019-02-14T06:26:14.346Z,163
2019-02-14T06:26:44.362Z,173
2019-02-14T06:27:14.430Z,187
2019-02-14T06:27:44.418Z,197
2019-02-14T06:28:14.602Z,210
2019-02-14T06:28:44.550Z,220
2019-02-14T06:29:14.666Z,233
2019-02-14T06:29:44.593Z,247
2019-02-14T06:30:14.696Z,260
2019-02-14T06:30:44.654Z,273
2019-02-14T06:31:14.635Z,287
2019-02-14T06:31:44.715Z,300
2019-02-14T06:32:14.694Z,313
2019-02-14T06:32:44.752Z,330
2019-02-14T06:33:14.757Z,343
2019-02-14T06:33:44.834Z,360
2019-02-14T06:34:14.883Z,373
2019-02-14T06:34:44.855Z,390
2019-02-14T06:35:15.070Z,407
2019-02-14T06:35:44.937Z,420
2019-02-14T06:36:15.207Z,433
2019-02-14T06:36:45.016Z,450
2019-02-14T06:37:15.060Z,467
2019-02-14T06:37:45.058Z,487
2019-02-14T06:38:15.061Z,507
2019-02-14T06:38:45.148Z,527
2019-02-14T06:39:15.183Z,547
2019-02-14T06:39:45.186Z,567
2019-02-14T06:40:15.233Z,590
2019-02-14T06:40:45.269Z,613
2019-02-14T06:41:15.292Z,640
2019-02-14T06:41:45.285Z,663
2019-02-14T06:42:15.318Z,690
2019-02-14T06:42:45.394Z,720
2019-02-14T06:43:15.477Z,750
2019-02-14T06:43:45.434Z,783
2019-02-14T06:44:15.505Z,820
2019-02-14T06:44:45.571Z,857
2019-02-14T06:45:15.527Z,900
2019-02-14T06:45:45.551Z,947
2019-02-14T06:46:15.557Z,993
2019-02-14T06:46:45.607Z,1047
2019-02-14T06:47:15.660Z,1090
2019-02-14T06:47:45.683Z,1140
2019-02-14T06:48:15.719Z,1190
2019-02-14T06:48:45.734Z,1240
2019-02-14T06:49:15.830Z,1287
2019-02-14T06:49:45.810Z,1340
2019-02-14T06:50:15.838Z,1393
2019-02-14T06:50:45.897Z,1443
2019-02-14T06:51:15.897Z,1493
2019-02-14T06:51:45.986Z,1533
2019-02-14T06:52:15.975Z,1573
2019-02-14T06:52:45.991Z,1610
2019-02-14T06:53:16.024Z,1643
2019-02-14T06:53:46.029Z,1677
2019-02-14T06:54:16.140Z,1707
2019-02-14T06:54:46.127Z,1733
2019-02-14T06:55:16.150Z,1760
2019-02-14T06:55:46.142Z,1783
2019-02-14T06:56:16.208Z,1813
2019-02-14T06:56:46.204Z,1843
2019-02-14T06:57:16.262Z,1873
2019-02-14T06:57:46.332Z,1910
2019-02-14T06:58:16.349Z,1943
2019-02-14T06:58:46.411Z,1987
2019-02-14T06:59:16.404Z,2033
2019-02-14T06:59:46.459Z,2080
2019-02-14T07:00:16.457Z,2127
2019-02-14T07:00:46.484Z,2177
2019-02-14T07:01:16.523Z,2237
2019-02-14T07:01:46.544Z,2303
2019-02-14T07:02:16.600Z,2370
2019-02-14T07:02:46.587Z,2443
2019-02-14T07:03:16.638Z,2520
2019-02-14T07:03:46.662Z,2600
2019-02-14T07:04:16.684Z,2683
2019-02-14T07:04:46.712Z,2770
2019-02-14T07:05:16.738Z,2863
2019-02-14T07:05:46.798Z,2970
2019-02-14T07:06:16.790Z,3077
2019-02-14T07:06:46.831Z,3200
2019-02-14T07:07:18.763Z,3317
2019-02-14T07:07:46.884Z,3430
2019-02-14T07:08:16.924Z,3533
2019-02-14T07:08:46.976Z,3627
2019-02-14T07:09:16.996Z,3720
2019-02-14T07:09:47.059Z,3813
2019-02-14T07:10:17.047Z,3913
2019-02-14T07:10:47.083Z,4020
2019-02-14T07:11:17.121Z,4110
2019-02-14T07:11:47.128Z,4200
2019-02-14T07:12:17.180Z,4270
2019-02-14T07:12:47.240Z,4330
2019-02-14T07:13:17.300Z,4370
2019-02-14T07:13:47.246Z,4403
2019-02-14T07:14:17.393Z,4430
2019-02-14T07:14:47.375Z,4437
2019-02-14T07:15:17.379Z,4427
2019-02-14T07:15:47.376Z,4420
2019-02-14T07:16:17.435Z,4437
2019-02-14T07:16:47.474Z,4470
2019-02-14T07:17:17.564Z,4490
2019-02-14T07:17:47.541Z,4493
2019-02-14T07:18:47.585Z,4507
2019-02-14T07:19:17.614Z,4533
2019-02-14T07:19:47.689Z,4557
2019-02-14T07:20:17.808Z,4577
2019-02-14T07:20:47.709Z,4597
2019-02-14T07:21:17.738Z,4607
2019-02-14T07:21:47.802Z,4633
2019-02-14T07:22:17.795Z,4683
2019-02-14T07:22:47.844Z,4723
2019-02-14T07:23:17.863Z,4747
2019-02-14T07:23:47.911Z,4770
2019-02-14T07:24:17.933Z,4820
2019-02-14T07:24:48.035Z,4860
2019-02-14T07:25:17.976Z,4907
2019-02-14T07:25:48.066Z,4963
2019-02-14T07:26:18.074Z,5027
2019-02-14T07:26:48.099Z,5097
2019-02-14T07:27:18.163Z,5160
2019-02-14T07:27:48.170Z,5220
2019-02-14T07:28:18.256Z,5293
2019-02-14T07:28:48.172Z,5363
2019-02-14T07:29:18.293Z,5427
2019-02-14T07:29:48.342Z,5467
2019-02-14T07:30:18.327Z,5503
2019-02-14T07:30:48.320Z,5520
2019-02-14T07:31:48.401Z,5543
2019-02-14T07:32:18.486Z,5560
2019-02-14T07:32:48.497Z,5573
2019-02-14T07:33:18.552Z,5607
2019-02-14T07:33:48.480Z,5663
2019-02-14T07:34:18.568Z,5727
2019-02-14T07:34:48.623Z,5810
2019-02-14T07:35:18.645Z,5903
2019-02-14T07:35:48.633Z,6020
2019-02-14T07:36:18.682Z,6150
2019-02-14T07:36:48.717Z,6253
2019-02-14T07:37:26.308Z,6370
2019-02-14T07:37:48.744Z,6447
2019-02-14T07:38:18.820Z,6523
2019-02-14T07:38:48.845Z,6567
2019-02-14T07:39:18.844Z,6573
2019-02-14T07:39:50.394Z,6663
2019-02-14T07:40:18.910Z,6853
2019-02-14T07:40:49.001Z,6997
2019-02-14T07:41:18.997Z,7087
2019-02-14T07:41:49.058Z,7187
2019-02-14T07:42:19.036Z,7227
2019-02-14T07:42:49.696Z,7253
2019-02-14T07:43:19.309Z,7360
2019-02-14T07:43:49.140Z,7530
2019-02-14T07:44:19.182Z,7743
2019-02-14T07:44:49.209Z,7947
2019-02-14T07:45:19.224Z,8190
2019-02-14T07:45:49.308Z,8373
2019-02-14T07:46:22.632Z,8510
2019-02-14T07:46:49.304Z,8690
2019-02-14T07:47:19.369Z,8827
2019-02-14T07:47:49.381Z,8960
2019-02-14T07:48:19.422Z,9303
2019-02-14T07:48:49.455Z,9633
2019-02-14T07:49:19.445Z,9753
2019-02-14T07:49:49.541Z,9917
2019-02-14T07:50:19.529Z,10077
2019-02-14T07:50:49.524Z,9827
2019-02-14T07:51:19.627Z,9760
2019-02-14T07:51:49.584Z,9930
2019-02-14T07:52:24.969Z,10257
2019-02-14T07:52:49.690Z,10693
2019-02-14T07:53:19.694Z,10703
2019-02-14T07:53:49.721Z,10487
2019-02-14T07:54:19.761Z,10013
2019-02-14T07:54:49.779Z,10233
2019-02-14T07:55:19.864Z,11000
2019-02-14T07:55:49.847Z,12300
2019-02-14T07:56:19.852Z,11923
2019-02-14T07:56:49.889Z,10533
2019-02-14T07:57:19.948Z,9760
2019-02-14T07:57:49.957Z,9857
2019-02-14T07:58:20.049Z,11713
2019-02-14T07:58:50.042Z,13930
2019-02-14T07:59:20.086Z,14123
2019-02-14T07:59:50.068Z,14190
2019-02-14T08:00:20.131Z,14387
2019-02-14T08:00:50.187Z,14610
2019-02-14T08:01:20.217Z,14913
2019-02-14T08:01:50.245Z,15403
2019-02-14T08:02:20.314Z,15600
2019-02-14T08:02:50.354Z,15147
2019-02-14T08:03:20.319Z,14147
2019-02-14T08:03:50.382Z,13267
2019-02-14T08:04:20.347Z,12270
2019-02-14T08:04:50.466Z,12093
2019-02-14T08:05:20.428Z,12517
2019-02-14T08:05:50.508Z,13277
2019-02-14T08:06:20.502Z,14140
2019-02-14T08:06:50.571Z,14070
2019-02-14T08:07:20.567Z,13403
2019-02-14T08:07:50.592Z,12600
2019-02-14T08:08:20.643Z,12137
2019-02-14T08:08:50.675Z,12140
2019-02-14T08:09:20.680Z,12127
2019-02-14T08:09:50.736Z,12207
2019-02-14T08:10:20.759Z,12497
2019-02-14T08:10:50.819Z,12957
2019-02-14T08:11:20.811Z,13367
2019-02-14T08:11:50.884Z,13533
2019-02-14T08:12:20.837Z,13597
2019-02-14T08:12:50.969Z,13763
2019-02-14T08:13:21.003Z,13953
2019-02-14T08:13:50.985Z,13833
2019-02-14T08:14:20.997Z,14293
2019-02-14T08:14:51.064Z,15103
2019-02-14T08:15:21.065Z,14910
2019-02-14T08:15:51.109Z,14857
2019-02-14T08:16:21.087Z,15017
2019-02-14T08:16:51.218Z,14490
2019-02-14T08:17:21.168Z,13950
2019-02-14T08:17:51.565Z,13410
2019-02-14T08:18:21.203Z,13043
2019-02-14T08:18:51.751Z,13320
2019-02-14T08:19:21.359Z,13440
2019-02-14T08:19:51.298Z,13240
2019-02-14T08:20:21.393Z,13147
2019-02-14T08:20:51.418Z,13227
2019-02-14T08:21:21.447Z,13503
2019-02-14T08:21:51.615Z,13917
2019-02-14T08:22:21.477Z,14330
2019-02-14T08:22:51.773Z,14910
2019-02-14T08:23:21.560Z,15307
2019-02-14T08:23:51.589Z,16263
2019-02-14T08:24:21.634Z,17340
2019-02-14T08:24:51.700Z,17720
2019-02-14T08:25:21.672Z,17453
2019-02-14T08:25:51.750Z,17433
2019-02-14T08:26:21.754Z,17333
2019-02-14T08:26:51.779Z,17190
2019-02-14T08:27:21.791Z,15507
2019-02-14T08:27:51.836Z,16493
2019-02-14T08:28:21.885Z,16337
2019-02-14T08:28:51.886Z,13850
2019-02-14T08:29:21.891Z,15753
2019-02-14T08:29:51.966Z,16160
2019-02-14T08:30:21.978Z,13963
2019-02-14T08:30:52.107Z,12413
2019-02-14T08:31:22.037Z,13453
2019-02-14T08:31:52.250Z,13373
2019-02-14T08:32:22.096Z,14417
2019-02-14T08:32:52.149Z,15027
2019-02-14T08:33:22.170Z,16637
2019-02-14T08:33:52.205Z,17450
2019-02-14T08:34:22.267Z,18600
2019-02-14T08:34:52.288Z,18983
2019-02-14T08:35:22.287Z,19173
2019-02-14T08:35:52.400Z,20183
2019-02-14T08:36:22.361Z,20250
2019-02-14T08:36:52.396Z,20793
2019-02-14T08:37:22.417Z,22350
2019-02-14T08:37:53.855Z,23597
2019-02-14T08:38:22.496Z,23293
2019-02-14T08:38:52.501Z,23440
2019-02-14T08:39:22.525Z,23107
2019-02-14T08:39:52.559Z,23163
2019-02-14T08:40:22.581Z,23823
2019-02-14T08:40:52.736Z,24260
2019-02-14T08:41:22.639Z,23593
2019-02-14T08:41:52.671Z,20370
2019-02-14T08:42:22.688Z,24107
2019-02-14T08:42:52.723Z,21470
2019-02-14T08:43:22.955Z,20787
2019-02-14T08:43:52.785Z,20483
2019-02-14T08:44:22.847Z,20443
2019-02-14T08:44:52.847Z,18970
2019-02-14T08:45:22.917Z,18557
2019-02-14T08:45:53.173Z,20513
2019-02-14T08:46:22.933Z,21050
2019-02-14T08:46:52.969Z,21407
2019-02-14T08:47:23.058Z,20547
2019-02-14T08:47:53.073Z,18960
2019-02-14T08:48:23.108Z,18853
2019-02-14T08:48:53.134Z,20043
2019-02-14T08:49:23.130Z,21200
2019-02-14T08:49:53.167Z,21020
2019-02-14T08:50:23.229Z,21317
2019-02-14T08:50:53.312Z,20510
2019-02-14T08:51:23.296Z,21613
2019-02-14T08:51:53.291Z,20637
2019-02-14T08:52:23.413Z,20577
2019-02-14T08:52:53.382Z,20613
2019-02-14T08:53:23.383Z,19637
2019-02-14T08:53:53.429Z,20817
2019-02-14T08:54:23.488Z,19830
2019-02-14T08:54:53.461Z,19320
2019-02-14T08:55:23.531Z,15670
2019-02-14T08:55:53.626Z,12317
2019-02-14T08:56:23.601Z,10630
2019-02-14T08:56:53.594Z,10243
2019-02-14T08:57:23.659Z,8467
2019-02-14T08:57:53.696Z,8387
2019-02-14T08:58:23.771Z,8530
2019-02-14T08:58:53.795Z,10523
2019-02-14T08:59:23.786Z,19180
2019-02-14T08:59:53.801Z,19657
2019-02-14T09:00:23.834Z,19437
2019-02-14T09:00:53.887Z,14903
2019-02-14T09:01:23.900Z,12827
2019-02-14T09:01:53.942Z,17687
2019-02-14T09:02:23.960Z,18983
2019-02-14T09:02:53.988Z,18210
2019-02-14T09:03:24.020Z,21680
2019-02-14T09:03:54.041Z,20410
2019-02-14T09:04:24.079Z,17803
2019-02-14T09:04:54.125Z,17733
2019-02-14T09:05:24.107Z,18833
2019-02-14T09:05:54.300Z,18050
2019-02-14T09:06:24.211Z,19087
2019-02-14T09:06:54.243Z,19780
2019-02-14T09:07:24.270Z,22263
2019-02-14T09:07:55.038Z,21737
2019-02-14T09:08:24.346Z,23330
2019-02-14T09:08:54.398Z,24427
2019-02-14T09:09:24.395Z,24490
2019-02-14T09:09:54.434Z,24240
2019-02-14T09:10:24.455Z,24690
2019-02-14T09:10:54.550Z,24090
2019-02-14T09:11:24.522Z,22463
2019-02-14T09:11:54.543Z,21733
2019-02-14T09:12:24.587Z,22113
2019-02-14T09:12:54.599Z,22797
2019-02-14T09:13:26.169Z,24210
2019-02-14T09:13:54.679Z,23720
2019-02-14T09:14:24.683Z,22897
2019-02-14T09:14:54.735Z,21647
2019-02-14T09:15:24.762Z,20527
2019-02-14T09:15:54.809Z,22770
2019-02-14T09:16:24.839Z,21640
2019-02-14T09:16:54.854Z,19503
2019-02-14T09:17:24.893Z,22177
2019-02-14T09:17:54.916Z,17527
2019-02-14T09:18:24.959Z,21013
2019-02-14T09:18:54.985Z,18583
2019-02-14T09:19:25.000Z,21663
2019-02-14T09:19:55.064Z,25053
2019-02-14T09:20:25.086Z,18227
2019-02-14T09:20:55.159Z,13537
2019-02-14T09:21:25.172Z,20817
2019-02-14T09:21:55.181Z,17607
2019-02-14T09:22:25.195Z,10807
2019-02-14T09:22:55.219Z,12587
2019-02-14T09:23:25.278Z,12527
2019-02-14T09:23:55.296Z,14110
2019-02-14T09:24:25.335Z,18880
2019-02-14T09:24:55.347Z,27500
2019-02-14T09:25:25.400Z,27300
2019-02-14T09:25:55.428Z,25577
2019-02-14T09:26:25.427Z,23887
2019-02-14T09:26:55.446Z,12777
2019-02-14T09:27:25.477Z,9383
2019-02-14T09:27:55.513Z,9263
2019-02-14T09:28:25.570Z,14007
2019-02-14T09:28:55.586Z,22290
2019-02-14T09:29:25.586Z,27210
2019-02-14T09:29:55.755Z,27097
2019-02-14T09:30:25.732Z,26037
2019-02-14T09:30:55.758Z,26877
2019-02-14T09:31:25.730Z,26717
2019-02-14T09:31:55.822Z,25160
2019-02-14T09:32:25.794Z,25030
2019-02-14T09:32:55.807Z,24310
2019-02-14T09:33:25.825Z,27190
2019-02-14T09:33:55.863Z,27057
2019-02-14T09:34:26.158Z,27247
2019-02-14T09:34:55.959Z,27323
2019-02-14T09:35:27.179Z,27387
2019-02-14T09:35:56.040Z,27270
2019-02-14T09:36:26.059Z,27193
2019-02-14T09:36:56.052Z,27150
2019-02-14T09:37:26.120Z,26633
2019-02-14T09:38:02.957Z,24200
2019-02-14T09:38:26.169Z,27580
2019-02-14T09:38:56.203Z,27627
2019-02-14T09:39:26.209Z,27230
2019-02-14T09:39:56.287Z,26187
2019-02-14T09:40:26.279Z,26593
2019-02-14T09:40:56.405Z,23060
2019-02-14T09:41:26.369Z,27420
2019-02-14T09:41:56.393Z,27713
2019-02-14T09:42:26.428Z,27760
2019-02-14T09:42:56.416Z,27817
2019-02-14T09:43:29.739Z,27870
2019-02-14T09:43:56.490Z,27860
2019-02-14T09:44:26.573Z,27993
2019-02-14T09:45:26.628Z,28000
2019-02-14T09:45:58.193Z,28053
2019-02-14T09:46:26.652Z,28040
2019-02-14T09:46:56.678Z,28097
2019-02-14T09:47:26.729Z,28200
2019-02-14T09:47:56.725Z,28220
2019-02-14T09:48:26.799Z,28350
2019-02-14T09:48:56.829Z,28417
2019-02-14T09:49:26.829Z,28463
2019-02-14T09:49:56.867Z,28567
2019-02-14T09:50:27.271Z,28647
2019-02-14T09:50:56.956Z,28630
2019-02-14T09:51:27.002Z,28710
2019-02-14T09:51:56.993Z,28723
2019-02-14T09:52:27.001Z,28667
2019-02-14T09:52:57.066Z,28783
2019-02-14T09:53:27.078Z,28860
2019-02-14T09:53:57.120Z,28920
2019-02-14T09:54:27.219Z,29053
2019-02-14T09:54:57.181Z,29073
2019-02-14T09:55:27.428Z,29023
2019-02-14T09:55:57.243Z,29030
2019-02-14T09:56:27.376Z,29220
2019-02-14T09:56:57.365Z,29317
2019-02-14T09:57:27.343Z,29380
2019-02-14T09:57:57.409Z,29400
2019-02-14T09:58:27.478Z,29437
2019-02-14T09:58:57.496Z,29523
2019-02-14T09:59:27.524Z,29643
2019-02-14T09:59:57.535Z,29653
2019-02-14T10:00:27.561Z,29687
2019-02-14T10:00:57.571Z,29717
2019-02-14T10:01:27.668Z,29813
2019-02-14T10:01:57.639Z,29820
2019-02-14T10:02:27.664Z,29800
2019-02-14T10:02:57.779Z,29873
2019-02-14T10:03:27.760Z,29923
2019-02-14T10:03:57.772Z,29893
2019-02-14T10:04:27.810Z,29933
2019-02-14T10:04:57.778Z,30033
2019-02-14T10:05:27.908Z,30130
2019-02-14T10:05:57.875Z,30233
2019-02-14T10:06:36.281Z,30247
2019-02-14T10:06:57.937Z,30540
2019-02-14T10:07:27.952Z,30610
2019-02-14T10:07:58.064Z,30683
2019-02-14T10:08:28.003Z,30770
2019-02-14T10:08:58.022Z,30730
2019-02-14T10:09:28.145Z,30820
2019-02-14T10:09:58.144Z,30720
2019-02-14T10:10:28.200Z,30770
2019-02-14T10:10:58.143Z,30807
2019-02-14T10:11:28.303Z,30883
2019-02-14T10:11:58.242Z,30960
2019-02-14T10:12:28.313Z,30903
2019-02-14T10:12:58.314Z,30957
2019-02-14T10:13:28.415Z,31007
2019-02-14T10:13:58.357Z,31063
2019-02-14T10:14:28.380Z,31060
2019-02-14T10:14:58.449Z,31083
2019-02-14T10:15:28.525Z,31103
2019-02-14T10:15:58.510Z,31117
2019-02-14T10:16:28.575Z,31160
2019-02-14T10:16:58.521Z,31157
2019-02-14T10:17:28.610Z,31187
2019-02-14T10:17:58.592Z,31200
2019-02-14T10:18:28.674Z,31293
2019-02-14T10:18:58.689Z,31357
2019-02-14T10:19:28.844Z,31360
2019-02-14T10:19:58.802Z,31473
2019-02-14T10:20:28.771Z,31583
2019-02-14T10:20:58.795Z,31553
2019-02-14T10:21:28.841Z,31517
2019-02-14T10:21:58.863Z,31500
2019-02-14T10:22:28.851Z,31700
2019-02-14T10:22:58.891Z,31720
2019-02-14T10:23:28.910Z,31813
2019-02-14T10:23:58.969Z,31790
2019-02-14T10:24:28.979Z,31930
2019-02-14T10:24:59.002Z,31917
2019-02-14T10:25:29.049Z,31943
2019-02-14T10:25:59.083Z,32027
2019-02-14T10:26:29.117Z,32023
2019-02-14T10:26:59.193Z,32013
2019-02-14T10:27:29.155Z,32057
2019-02-14T10:27:59.231Z,32077
2019-02-14T10:28:29.318Z,32173
2019-02-14T10:28:59.296Z,32177
2019-02-14T10:29:29.306Z,32170
2019-02-14T10:29:59.346Z,32243
2019-02-14T10:30:29.343Z,32207
2019-02-14T10:30:59.374Z,32197
2019-02-14T10:31:29.503Z,32220
2019-02-14T10:31:59.455Z,32250
2019-02-14T10:32:29.527Z,32343
2019-02-14T10:32:59.538Z,32270
2019-02-14T10:33:29.580Z,32370
2019-02-14T10:33:59.599Z,32470
2019-02-14T10:34:29.586Z,32420
2019-02-14T10:34:59.657Z,32450
2019-02-14T10:35:29.701Z,32503
2019-02-14T10:35:59.695Z,32520
2019-02-14T10:36:59.839Z,32583
2019-02-14T10:37:29.769Z,32657
2019-02-14T10:37:59.831Z,32653
2019-02-14T10:38:29.888Z,32773
2019-02-14T10:38:59.907Z,32717
2019-02-14T10:39:29.969Z,32663
2019-02-14T10:39:59.973Z,32733
2019-02-14T10:40:29.985Z,32810
2019-02-14T10:41:00.032Z,32873
2019-02-14T10:41:30.073Z,32880
2019-02-14T10:42:00.155Z,32873
2019-02-14T10:42:30.125Z,32903
2019-02-14T10:43:00.157Z,33033
2019-02-14T10:43:30.219Z,32990
2019-02-14T10:44:00.220Z,33060
2019-02-14T10:44:30.264Z,33153
2019-02-14T10:45:00.882Z,33060
2019-02-14T10:45:30.322Z,33067
2019-02-14T10:46:01.048Z,33107
2019-02-14T10:46:30.351Z,33137
2019-02-14T10:47:01.286Z,33220
2019-02-14T10:47:30.438Z,33210
2019-02-14T10:48:00.735Z,33240
2019-02-14T10:48:30.498Z,33067
2019-02-14T10:49:00.691Z,33247
2019-02-14T10:49:30.509Z,33260
2019-02-14T10:50:00.851Z,33317
2019-02-14T10:50:30.580Z,33333
2019-02-14T10:51:01.198Z,33490
2019-02-14T10:51:30.678Z,33393
2019-02-14T10:52:00.769Z,33357
2019-02-14T10:52:30.792Z,33490
2019-02-14T10:53:01.187Z,33483
2019-02-14T10:53:30.803Z,33523
2019-02-14T10:54:00.854Z,33513
2019-02-14T10:54:30.880Z,33543
2019-02-14T10:55:00.926Z,33507
2019-02-14T10:55:30.941Z,33567
2019-02-14T10:56:01.111Z,33523
2019-02-14T10:56:30.988Z,33473
2019-02-14T10:57:01.028Z,33483
2019-02-14T10:57:31.105Z,33513
2019-02-14T10:58:01.038Z,33597
2019-02-14T10:58:31.141Z,33480
2019-02-14T10:59:01.404Z,33590
2019-02-14T10:59:31.185Z,33697
2019-02-14T11:00:31.233Z,33540
2019-02-14T11:01:01.370Z,33683
2019-02-14T11:01:31.296Z,33707
2019-02-14T11:02:01.284Z,33767
2019-02-14T11:02:31.389Z,33703
2019-02-14T11:03:01.367Z,33753
2019-02-14T11:04:01.452Z,33707
2019-02-14T11:04:31.442Z,33747
2019-02-14T11:05:01.586Z,33847
2019-02-14T11:05:31.527Z,33820
2019-02-14T11:06:01.565Z,33907
2019-02-14T11:06:31.617Z,33817
2019-02-14T11:07:01.617Z,33773
2019-02-14T11:07:31.729Z,33867
2019-02-14T11:08:01.680Z,33897
2019-02-14T11:09:01.719Z,33867
2019-02-14T11:09:31.750Z,33797
2019-02-14T11:10:01.950Z,33863
2019-02-14T11:10:31.843Z,33897
2019-02-14T11:11:01.916Z,33820
2019-02-14T11:11:31.951Z,33900
2019-02-14T11:12:01.934Z,33850
2019-02-14T11:12:33.456Z,33890
2019-02-14T11:13:01.967Z,33910
2019-02-14T11:13:32.021Z,33877
2019-02-14T11:14:02.048Z,33883
2019-02-14T11:14:32.054Z,33960
2019-02-14T11:15:02.086Z,33993
2019-02-14T11:16:02.151Z,34013
2019-02-14T11:16:32.220Z,33920
2019-02-14T11:17:02.210Z,33877
2019-02-14T11:17:32.360Z,33910
2019-02-14T11:18:02.287Z,33923
2019-02-14T11:18:32.319Z,33903
2019-02-14T11:19:02.377Z,33790
2019-02-14T11:19:32.368Z,33880
2019-02-14T11:20:02.396Z,33923
2019-02-14T11:20:32.465Z,33890
2019-02-14T11:21:02.452Z,33987
2019-02-14T11:21:32.518Z,33920
2019-02-14T11:22:02.568Z,33917
2019-02-14T11:22:32.593Z,33987
2019-02-14T11:23:02.578Z,33850
2019-02-14T11:23:32.652Z,33803
2019-02-14T11:24:02.659Z,33927
2019-02-14T11:24:32.684Z,33877
2019-02-14T11:25:02.754Z,33893
2019-02-14T11:25:32.776Z,33827
2019-02-14T11:26:02.782Z,33973
2019-02-14T11:26:32.834Z,33937
2019-02-14T11:27:02.927Z,33933
2019-02-14T11:27:32.919Z,33897
2019-02-14T11:28:02.934Z,33920
2019-02-14T11:28:33.008Z,34000
2019-02-14T11:29:02.977Z,33990
2019-02-14T11:29:32.989Z,33970
2019-02-14T11:30:03.110Z,33940
2019-02-14T11:30:33.080Z,33930
2019-02-14T11:31:03.105Z,33937
2019-02-14T11:31:34.640Z,33920
2019-02-14T11:32:03.166Z,33957
2019-02-14T11:32:33.217Z,33873
2019-02-14T11:33:03.460Z,33793
2019-02-14T11:33:33.260Z,33860
2019-02-14T11:34:03.262Z,33920
2019-02-14T11:34:33.330Z,33747
2019-02-14T11:35:03.359Z,33780
2019-02-14T11:35:33.432Z,33693
2019-02-14T11:36:03.479Z,33860
2019-02-14T11:36:33.447Z,33850
2019-02-14T11:37:03.509Z,33807
2019-02-14T11:37:33.524Z,33803
2019-02-14T11:38:03.602Z,33860
2019-02-14T11:38:40.348Z,33780
2019-02-14T11:39:03.658Z,33703
2019-02-14T11:40:03.721Z,33773
2019-02-14T11:40:33.693Z,33617
2019-02-14T11:41:03.688Z,33677
2019-02-14T11:41:33.764Z,33717
2019-02-14T11:42:03.843Z,33763
2019-02-14T11:42:33.845Z,33713
2019-02-14T11:43:03.838Z,33570
2019-02-14T11:43:33.933Z,33750
2019-02-14T11:44:03.914Z,33650
2019-02-14T11:44:39.705Z,33670
2019-02-14T11:45:03.964Z,33700
2019-02-14T11:45:34.010Z,33587
2019-02-14T11:46:04.032Z,33557
2019-02-14T11:46:34.071Z,33537
2019-02-14T11:47:04.092Z,33460
2019-02-14T11:47:34.207Z,33487
2019-02-14T11:48:04.222Z,33547
2019-02-14T11:48:34.153Z,33483
2019-02-14T11:49:04.286Z,33543
2019-02-14T11:49:34.213Z,33460
2019-02-14T11:50:04.254Z,33497
2019-02-14T11:50:34.334Z,33517
2019-02-14T11:51:04.341Z,33443
2019-02-14T11:51:34.400Z,33497
2019-02-14T11:52:04.464Z,33483
2019-02-14T11:52:34.586Z,33427
2019-02-14T11:53:13.586Z,33373
2019-02-14T11:53:34.515Z,33370
2019-02-14T11:54:04.553Z,33390
2019-02-14T11:54:34.530Z,33403
2019-02-14T11:55:04.580Z,33293
2019-02-14T11:55:34.586Z,33277
2019-02-14T11:56:04.636Z,33230
2019-02-14T11:56:34.655Z,33280
2019-02-14T11:57:04.687Z,33210
2019-02-14T11:57:34.734Z,33140
2019-02-14T11:58:04.757Z,33183
2019-02-14T11:58:34.795Z,33133
2019-02-14T11:59:04.974Z,33107
2019-02-14T11:59:34.970Z,33067
2019-02-14T12:00:04.986Z,33057
2019-02-14T12:00:35.067Z,33077
2019-02-14T12:01:05.075Z,33070
2019-02-14T12:01:35.156Z,33010
2019-02-14T12:02:05.157Z,33053
2019-02-14T12:02:35.414Z,33043
2019-02-14T12:03:05.246Z,33010
2019-02-14T12:03:35.250Z,32907
2019-02-14T12:04:05.295Z,32940
2019-02-14T12:04:35.271Z,32880
2019-02-14T12:05:05.350Z,32757
2019-02-14T12:05:35.377Z,32793
2019-02-14T12:06:35.442Z,32780
2019-02-14T12:07:05.443Z,32797
2019-02-14T12:07:35.545Z,32760
2019-02-14T12:08:05.508Z,32727
2019-02-14T12:08:35.557Z,32693
2019-02-14T12:09:05.573Z,32607
2019-02-14T12:09:35.653Z,32583
2019-02-14T12:10:13.140Z,32540
2019-02-14T12:10:35.673Z,32517
2019-02-14T12:11:05.700Z,32483
2019-02-14T12:11:35.694Z,32447
2019-02-14T12:12:05.758Z,32457
2019-02-14T12:12:35.824Z,32397
2019-02-14T12:13:05.885Z,32330
2019-02-14T12:13:35.913Z,32290
2019-02-14T12:14:05.898Z,32223
2019-02-14T12:14:35.881Z,32207
2019-02-14T12:15:05.985Z,32197
2019-02-14T12:15:35.977Z,32160
2019-02-14T12:16:06.008Z,32117
2019-02-14T12:16:36.042Z,32113
2019-02-14T12:17:06.065Z,32093
2019-02-14T12:17:36.132Z,32023
2019-02-14T12:18:06.137Z,31987
2019-02-14T12:18:36.167Z,31940
2019-02-14T12:19:06.182Z,31883
2019-02-14T12:19:36.230Z,31853
2019-02-14T12:20:12.180Z,31847
2019-02-14T12:20:36.289Z,31857
2019-02-14T12:21:06.309Z,31773
2019-02-14T12:21:36.358Z,31710
2019-02-14T12:22:06.376Z,31717
2019-02-14T12:22:36.435Z,31663
2019-02-14T12:23:06.439Z,31640
2019-02-14T12:23:36.452Z,31597
2019-02-14T12:24:06.501Z,31540
2019-02-14T12:24:36.541Z,31493
2019-02-14T12:25:08.456Z,31447
2019-02-14T12:25:36.598Z,31510
2019-02-14T12:26:06.668Z,31450
2019-02-14T12:26:36.661Z,31437
2019-02-14T12:27:06.802Z,31367
2019-02-14T12:27:38.246Z,31347
2019-02-14T12:28:06.748Z,31323
2019-02-14T12:28:36.884Z,31283
2019-02-14T12:29:06.812Z,31263
2019-02-14T12:29:36.827Z,31193
2019-02-14T12:30:06.862Z,31167
2019-02-14T12:30:36.905Z,31113
2019-02-14T12:31:06.928Z,31070
2019-02-14T12:31:36.970Z,31087
2019-02-14T12:32:06.988Z,31057
2019-02-14T12:32:37.101Z,31017
2019-02-14T12:33:07.189Z,30957
2019-02-14T12:33:37.085Z,30963
2019-02-14T12:34:07.114Z,30903
2019-02-14T12:34:37.133Z,30870
2019-02-14T12:35:07.181Z,30800
2019-02-14T12:36:07.210Z,30750
2019-02-14T12:36:37.316Z,30743
2019-02-14T12:37:07.293Z,30720
2019-02-14T12:37:37.373Z,30693
2019-02-14T12:38:07.366Z,30617
2019-02-14T12:38:37.362Z,30570
2019-02-14T12:39:09.924Z,30500
2019-02-14T12:39:37.501Z,30490
2019-02-14T12:40:07.476Z,30437
2019-02-14T12:40:37.524Z,30393
2019-02-14T12:41:07.607Z,30357
2019-02-14T12:41:37.591Z,30347
2019-02-14T12:42:07.602Z,30297
2019-02-14T12:42:37.664Z,30247
2019-02-14T12:43:07.659Z,30150
2019-02-14T12:43:37.700Z,30147
2019-02-14T12:44:07.699Z,30073
2019-02-14T12:44:37.771Z,30047
2019-02-14T12:45:07.806Z,29983
2019-02-14T12:45:37.794Z,29943
2019-02-14T12:46:07.824Z,29920
2019-02-14T12:46:38.031Z,29843
2019-02-14T12:47:07.903Z,29793
2019-02-14T12:47:37.972Z,29717
2019-02-14T12:48:07.975Z,29697